Time;durP1;ratioP1;P1;durP2;ratioP2;P2;SDS_P1;SDS_P2;PMS_P1;PMS_P2;Temp;Humidity;BMP_temperature;BMP_pressure;BME280_temperature;BME280_humidity;BME280_pressure;Samples;Min_cycle;Max_cycle;Signal;HPM_P1;HPM_P2
2021/09/03 00:00:17;;;;;;;5.68;4.57;;;;;;;18.21;62.33;101088.59;5012053;28;20513;-65
2021/09/03 00:02:43;;;;;;;5.22;4.43;;;;;;;18.21;62.33;101074.19;5012123;28;20133;-66
2021/09/03 00:05:13;;;;;;;5.28;4.47;;;;;;;18.19;62.36;101077.06;5011812;28;20050;-65
2021/09/03 00:07:38;;;;;;;5.43;4.55;;;;;;;18.20;62.40;101078.78;5011884;28;20033;-65
2021/09/03 00:10:06;;;;;;;8.15;4.13;;;;;;;18.20;62.47;101078.78;5027197;28;20033;-66
2021/09/03 00:12:32;;;;;;;5.97;4.97;;;;;;;18.15;62.43;101069.41;5011715;28;20069;-65
2021/09/03 00:14:57;;;;;;;6.30;5.22;;;;;;;18.18;62.40;101071.81;5011411;28;20056;-65
2021/09/03 00:17:23;;;;;;;5.03;4.28;;;;;;;18.13;62.39;101066.88;5011621;28;20084;-66
2021/09/03 00:19:48;;;;;;;5.55;4.68;;;;;;;18.15;62.69;101061.28;5010372;28;20025;-67
2021/09/03 00:22:14;;;;;;;6.38;4.82;;;;;;;18.20;62.68;101070.63;5011563;28;20029;-66
2021/09/03 00:24:39;;;;;;;6.38;4.72;;;;;;;18.17;62.84;101067.38;5011748;28;20030;-66
2021/09/03 00:27:05;;;;;;;5.93;4.75;;;;;;;18.12;62.85;101059.72;5011578;28;20409;-66
2021/09/03 00:29:33;;;;;;;6.65;5.07;;;;;;;18.24;62.84;101071.97;5010057;28;20021;-66
2021/09/03 00:31:58;;;;;;;8.02;4.78;;;;;;;18.24;62.83;101063.84;5011215;28;20037;-66
2021/09/03 00:34:24;;;;;;;6.20;5.00;;;;;;;18.20;63.27;101062.47;5011443;28;20025;-67
2021/09/03 00:36:50;;;;;;;6.63;4.88;;;;;;;18.22;63.23;101067.75;5025928;28;20064;-66
2021/09/03 00:39:15;;;;;;;5.38;4.72;;;;;;;18.08;63.31;101051.06;5009943;28;20033;-67
2021/09/03 00:41:41;;;;;;;5.78;4.32;;;;;;;18.20;63.08;101067.03;5011346;28;20030;-65
2021/09/03 00:44:07;;;;;;;6.60;5.15;;;;;;;18.22;63.33;101070.47;5026084;28;20038;-66
2021/09/03 00:46:32;;;;;;;6.75;4.65;;;;;;;18.21;63.30;101080.47;5011191;28;20057;-65
2021/09/03 00:48:58;;;;;;;9.27;5.18;;;;;;;18.17;63.12;101068.22;5009808;28;20034;-65
2021/09/03 00:51:24;;;;;;;6.80;5.13;;;;;;;18.18;63.45;101069.91;5011037;28;20026;-65
2021/09/03 00:53:50;;;;;;;6.50;4.70;;;;;;;18.23;63.13;101073.00;5011103;28;20427;-65
2021/09/03 00:56:16;;;;;;;7.35;5.20;;;;;;;18.15;62.81;101059.38;5010908;28;20148;-65
2021/09/03 00:58:42;;;;;;;9.00;5.20;;;;;;;18.23;62.64;101073.00;5010985;28;20340;-65
2021/09/03 01:01:08;;;;;;;5.65;4.70;;;;;;;18.21;62.82;101063.34;5011082;28;20046;-66
2021/09/03 01:03:34;;;;;;;6.88;4.32;;;;;;;18.26;62.61;101066.38;5010549;28;20049;-66
2021/09/03 01:06:03;;;;;;;6.57;5.35;;;;;;;18.28;62.45;101067.09;5023771;28;20037;-66
2021/09/03 01:08:29;;;;;;;5.63;5.03;;;;;;;18.22;62.21;101049.59;5010965;28;20056;-66
2021/09/03 01:10:55;;;;;;;9.23;4.93;;;;;;;18.25;61.86;101060.09;5010704;28;20049;-66
2021/09/03 01:13:21;;;;;;;5.75;4.70;;;;;;;18.22;61.31;101043.31;5010679;28;20061;-66
2021/09/03 01:15:46;;;;;;;6.78;4.50;;;;;;;18.33;61.17;101051.97;5010646;28;20040;-66
2021/09/03 01:18:12;;;;;;;5.53;4.55;;;;;;;18.31;61.48;101059.44;5009415;28;20032;-66
2021/09/03 01:20:37;;;;;;;7.05;4.60;;;;;;;18.30;60.84;101056.88;5010699;28;20072;-66
2021/09/03 01:23:03;;;;;;;6.43;4.50;;;;;;;18.33;60.99;101056.56;5010725;28;20022;-66
2021/09/03 01:25:29;;;;;;;7.95;4.88;;;;;;;18.34;61.11;101053.66;5010739;28;20033;-66
2021/09/03 01:27:54;;;;;;;8.07;5.13;;;;;;;18.33;60.81;101057.41;5010609;28;20478;-66
2021/09/03 01:30:20;;;;;;;7.93;4.88;;;;;;;18.33;60.41;101051.97;5010539;28;20029;-66
2021/09/03 01:32:47;;;;;;;7.47;4.82;;;;;;;18.34;60.37;101053.66;5010478;28;20026;-66
2021/09/03 01:35:13;;;;;;;8.30;4.95;;;;;;;18.28;60.20;101043.47;5023956;28;20113;-66
2021/09/03 01:37:38;;;;;;;7.13;5.03;;;;;;;18.36;60.24;101054.41;5025666;28;20054;-66
2021/09/03 01:40:04;;;;;;;6.93;4.68;;;;;;;18.36;60.01;101043.53;5010252;28;20108;-66
2021/09/03 01:42:31;;;;;;;5.82;4.00;;;;;;;18.38;59.99;101044.19;5009983;28;20422;-66
2021/09/03 01:44:56;;;;;;;6.65;4.35;;;;;;;18.34;59.74;101028.41;5010550;28;20069;-66
2021/09/03 01:47:22;;;;;;;5.85;4.15;;;;;;;18.40;59.86;101046.75;5011478;28;20043;-66
2021/09/03 01:49:47;;;;;;;6.20;4.82;;;;;;;18.40;59.61;101041.31;5014430;28;20037;-66
2021/09/03 01:52:13;;;;;;;6.00;4.85;;;;;;;18.38;60.01;101037.94;5013129;28;20026;-66
2021/09/03 01:54:38;;;;;;;8.20;4.53;;;;;;;18.40;59.77;101042.19;5029463;28;20787;-66
2021/09/03 01:57:04;;;;;;;5.65;4.72;;;;;;;18.34;59.93;101025.69;5014110;28;20085;-66
2021/09/03 01:59:29;;;;;;;6.85;4.85;;;;;;;18.39;59.83;101034.19;5014133;28;20030;-66
2021/09/03 02:01:55;;;;;;;6.20;4.97;;;;;;;18.40;59.96;101028.59;5014288;28;20044;-66
2021/09/03 02:04:20;;;;;;;5.40;4.47;;;;;;;18.44;59.67;101034.56;5027378;28;20048;-66
2021/09/03 02:06:46;;;;;;;5.57;4.13;;;;;;;18.35;59.97;101028.22;5033800;28;20029;-66
2021/09/03 02:09:11;;;;;;;6.45;4.55;;;;;;;18.40;59.79;101036.75;5033856;28;20021;-66
2021/09/03 02:11:37;;;;;;;4.32;3.92;;;;;;;18.37;59.53;101026.22;5033728;28;20113;-66
2021/09/03 02:14:02;;;;;;;5.25;4.30;;;;;;;18.38;59.56;101027.06;5033647;28;20406;-66
2021/09/03 02:16:28;;;;;;;5.35;4.30;;;;;;;18.38;59.95;101032.50;5033639;28;20040;-66
2021/09/03 02:18:54;;;;;;;6.68;4.22;;;;;;;18.38;59.56;101021.63;5033406;28;20077;-66
2021/09/03 02:21:19;;;;;;;5.97;4.63;;;;;;;18.38;59.85;101030.63;5033575;28;20452;-66
2021/09/03 02:23:45;;;;;;;6.13;4.47;;;;;;;18.37;59.92;101018.06;5033700;28;20025;-66
2021/09/03 02:26:10;;;;;;;5.95;4.70;;;;;;;18.33;59.97;101018.53;5033249;28;20032;-66
2021/09/03 02:28:36;;;;;;;5.00;4.07;;;;;;;18.33;60.05;101021.25;5033551;28;20030;-66
2021/09/03 02:31:01;;;;;;;6.32;4.65;;;;;;;18.39;59.85;101026.03;5033322;28;20041;-66
2021/09/03 02:33:27;;;;;;;5.13;4.30;;;;;;;18.38;59.92;101022.47;5032050;28;20029;-66
2021/09/03 02:35:52;;;;;;;5.93;4.45;;;;;;;18.39;60.10;101029.63;5033299;28;20494;-67
2021/09/03 02:38:18;;;;;;;5.88;4.45;;;;;;;18.38;59.88;101027.91;5033173;28;20041;-66
2021/09/03 02:40:44;;;;;;;6.07;4.40;;;;;;;18.32;60.09;101011.41;5033420;28;20027;-66
2021/09/03 02:43:09;;;;;;;4.50;3.97;;;;;;;18.34;59.92;101021.06;5033101;28;20025;-66
2021/09/03 02:45:35;;;;;;;7.72;4.50;;;;;;;18.35;60.43;101025.53;5048500;28;20104;-66
2021/09/03 02:48:01;;;;;;;12.82;4.30;;;;;;;18.37;60.35;101025.34;5033005;28;20046;-66
2021/09/03 02:50:31;;;;;;;6.18;4.72;;;;;;;18.33;60.54;101015.81;5033038;28;20135;-65
2021/09/03 02:52:58;;;;;;;5.85;4.68;;;;;;;18.30;61.00;101010.72;5031902;28;20457;-65
2021/09/03 02:55:25;;;;;;;6.40;4.85;;;;;;;18.32;61.00;101023.13;5032913;28;20480;-65
2021/09/03 02:57:50;;;;;;;6.45;4.70;;;;;;;18.33;60.91;101022.09;5033052;28;20104;-65
2021/09/03 03:00:16;;;;;;;8.73;4.72;;;;;;;18.32;61.25;101012.25;5047779;28;20120;-65
2021/09/03 03:02:41;;;;;;;9.88;5.05;;;;;;;18.32;61.24;101017.69;5033154;28;20130;-65
2021/09/03 03:05:07;;;;;;;6.45;4.65;;;;;;;18.32;61.45;101016.84;5032578;28;20048;-65
2021/09/03 03:07:33;;;;;;;9.32;4.85;;;;;;;18.30;61.52;101014.28;5032627;28;20029;-65
2021/09/03 03:09:58;;;;;;;6.13;4.45;;;;;;;18.24;61.64;101012.25;5032690;28;20131;-65
2021/09/03 03:12:24;;;;;;;8.82;4.78;;;;;;;18.26;61.83;101009.34;5032551;28;20038;-65
2021/09/03 03:14:49;;;;;;;5.25;4.75;;;;;;;18.16;61.71;101006.81;5047946;28;20033;-65
2021/09/03 03:17:15;;;;;;;8.57;4.47;;;;;;;18.19;61.75;101011.03;5032532;28;20029;-65
2021/09/03 03:19:40;;;;;;;7.15;4.85;;;;;;;18.13;62.01;101005.25;5032454;28;20049;-66
2021/09/03 03:22:06;;;;;;;7.43;4.68;;;;;;;18.10;62.33;101004.75;5032423;28;20095;-66
2021/09/03 03:24:31;;;;;;;5.97;4.97;;;;;;;18.19;62.34;101020.06;5047536;28;20084;-66
2021/09/03 03:26:57;;;;;;;6.60;4.75;;;;;;;18.19;62.48;101025.47;5032316;28;20030;-66
2021/09/03 03:29:24;;;;;;;6.15;4.40;;;;;;;18.17;62.58;101019.34;5047338;28;20029;-66
2021/09/03 03:31:49;;;;;;;9.00;5.40;;;;;;;18.16;62.89;101025.81;5029196;28;20025;-66
2021/09/03 03:34:14;;;;;;;7.45;5.18;;;;;;;18.11;62.60;101017.31;5021055;28;20367;-66
2021/09/03 03:36:40;;;;;;;7.07;5.30;;;;;;;18.12;62.89;101027.13;5023237;28;20029;-66
2021/09/03 03:39:07;;;;;;;9.27;5.85;;;;;;;18.17;62.96;101029.34;5019855;28;20032;-66
2021/09/03 03:41:33;;;;;;;7.60;5.22;;;;;;;18.16;62.96;101024.94;5024973;28;20776;-66
2021/09/03 03:43:58;;;;;;;6.82;5.07;;;;;;;18.17;62.94;101026.63;5018563;28;20029;-67
2021/09/03 03:46:25;;;;;;;9.85;5.20;;;;;;;18.14;63.23;101022.41;5012162;28;20037;-67
2021/09/03 03:48:51;;;;;;;6.47;5.22;;;;;;;18.15;62.95;101026.81;5012327;28;20057;-66
2021/09/03 03:51:16;;;;;;;10.18;5.10;;;;;;;18.14;63.45;101025.13;5014730;28;20029;-65
2021/09/03 03:53:42;;;;;;;6.43;5.03;;;;;;;18.12;63.48;101024.41;5037556;28;20038;-66
2021/09/03 03:56:07;;;;;;;8.23;5.30;;;;;;;18.15;63.12;101028.69;5015423;28;20436;-66
2021/09/03 03:58:33;;;;;;;8.50;5.25;;;;;;;18.13;63.32;101022.56;5019660;28;20025;-66
2021/09/03 04:00:58;;;;;;;8.38;5.78;;;;;;;18.13;63.63;101031.56;5022354;28;20029;-66
2021/09/03 04:03:24;;;;;;;11.45;6.30;;;;;;;18.09;63.78;101022.06;5025001;28;20029;-66
2021/09/03 04:05:49;;;;;;;6.82;5.00;;;;;;;18.08;63.74;101017.63;5018313;28;20044;-67
2021/09/03 04:08:15;;;;;;;11.02;6.57;;;;;;;18.05;63.75;101015.25;5024612;28;20021;-67
2021/09/03 04:10:40;;;;;;;12.90;6.28;;;;;;;18.13;64.33;101034.28;5016171;28;20494;-66
2021/09/03 04:13:05;;;;;;;8.98;6.40;;;;;;;18.08;64.07;101018.50;5039189;28;20455;-67
2021/09/03 04:15:31;;;;;;;9.05;5.60;;;;;;;18.09;64.25;101012.03;5033002;28;20037;-66
2021/09/03 04:17:56;;;;;;;7.40;5.57;;;;;;;18.11;64.25;101022.72;5014740;28;20033;-66
2021/09/03 04:20:22;;;;;;;9.60;6.00;;;;;;;18.09;64.20;101017.47;5016169;28;20029;-67
2021/09/03 04:22:48;;;;;;;10.98;6.88;;;;;;;18.13;64.23;101026.97;5019485;28;20490;-66
2021/09/03 04:25:13;;;;;;;8.23;5.68;;;;;;;18.13;64.60;101028.84;5024119;28;20875;-66
2021/09/03 04:27:41;;;;;;;10.32;6.10;;;;;;;18.13;64.41;101022.56;5019732;28;20029;-65
2021/09/03 04:30:07;;;;;;;9.80;6.13;;;;;;;18.11;64.82;101022.72;5017849;28;20018;-66
2021/09/03 04:32:32;;;;;;;11.00;6.30;;;;;;;18.04;64.79;101010.84;5011635;28;20501;-66
2021/09/03 04:34:58;;;;;;;7.75;6.32;;;;;;;18.10;65.05;101019.16;5011529;28;20555;-66
2021/09/03 04:37:23;;;;;;;8.27;6.03;;;;;;;18.11;64.90;101020.00;5011358;28;20029;-65
2021/09/03 04:39:49;;;;;;;10.50;6.55;;;;;;;18.08;64.48;101010.34;5010549;28;20029;-65
2021/09/03 04:42:15;;;;;;;10.18;7.43;;;;;;;18.11;64.57;101017.31;5028960;28;20030;-65
2021/09/03 04:44:40;;;;;;;8.15;7.10;;;;;;;18.11;65.11;101020.00;5011898;28;20033;-65
2021/09/03 04:47:06;;;;;;;10.25;6.75;;;;;;;18.09;65.34;101009.31;5011541;28;20430;-65
2021/09/03 04:49:34;;;;;;;9.48;6.50;;;;;;;18.15;65.26;101013.22;5011833;28;20088;-65
2021/09/03 04:52:00;;;;;;;9.13;6.80;;;;;;;18.17;64.91;101022.06;5013917;28;20030;-65
2021/09/03 04:54:25;;;;;;;11.40;7.38;;;;;;;18.17;65.18;101013.06;5011744;28;20132;-66
2021/09/03 04:56:51;;;;;;;12.93;7.10;;;;;;;18.19;65.16;101021.91;5011557;28;20092;-65
2021/09/03 04:59:16;;;;;;;10.52;6.90;;;;;;;18.19;65.23;101020.06;5011128;28;20022;-66
2021/09/03 05:01:42;;;;;;;10.65;7.40;;;;;;;18.19;65.35;101022.78;5011092;28;20018;-66
2021/09/03 05:04:07;;;;;;;10.48;7.38;;;;;;;18.20;65.22;101013.59;5011077;28;20060;-66
2021/09/03 05:06:33;;;;;;;14.05;6.97;;;;;;;18.17;65.22;101013.91;5011210;28;20026;-66
2021/09/03 05:08:58;;;;;;;11.15;7.75;;;;;;;18.30;65.50;101033.31;5009762;28;20183;-65
2021/09/03 05:11:24;;;;;;;11.35;7.63;;;;;;;18.32;65.58;101030.41;5011126;28;20522;-65
2021/09/03 05:13:49;;;;;;;11.73;8.10;;;;;;;18.33;65.27;101019.38;5011124;28;20034;-65
2021/09/03 05:16:15;;;;;;;13.65;8.93;;;;;;;18.32;65.08;101020.41;5010750;28;20060;-66
2021/09/03 05:18:40;;;;;;;9.48;7.53;;;;;;;18.34;65.08;101021.06;5010403;28;20033;-65
2021/09/03 05:21:07;;;;;;;10.02;7.25;;;;;;;18.28;64.99;101005.44;5010611;28;20030;-65
2021/09/03 05:23:33;;;;;;;13.90;7.18;;;;;;;18.41;64.79;101027.56;5010232;28;20075;-66
2021/09/03 05:25:59;;;;;;;11.48;6.80;;;;;;;18.46;64.47;101027.94;5009387;28;20061;-65
2021/09/03 05:28:27;;;;;;;11.38;7.97;;;;;;;18.48;64.84;101017.75;5010825;28;20421;-65
2021/09/03 05:30:53;;;;;;;11.15;7.10;;;;;;;18.48;64.68;101014.19;5010770;28;20108;-66
2021/09/03 05:33:18;;;;;;;11.85;7.57;;;;;;;18.56;64.83;101017.75;5010585;28;20152;-66
2021/09/03 05:35:44;;;;;;;9.90;6.60;;;;;;;18.55;64.22;101005.19;5013281;28;20042;-65
2021/09/03 05:38:09;;;;;;;13.40;7.60;;;;;;;18.67;64.34;101028.28;5030224;28;20068;-65
2021/09/03 05:40:35;;;;;;;9.00;6.85;;;;;;;18.68;64.42;101016.41;5045399;28;20025;-66
2021/09/03 05:43:01;;;;;;;11.68;7.00;;;;;;;18.74;64.17;101013.00;5045559;28;20025;-66
2021/09/03 05:45:26;;;;;;;11.57;7.22;;;;;;;18.80;63.85;101017.75;5030253;28;20034;-66
2021/09/03 05:47:52;;;;;;;15.52;7.40;;;;;;;18.82;63.37;101004.84;5030165;28;20028;-66
2021/09/03 05:50:18;;;;;;;10.52;6.13;;;;;;;18.95;62.87;101021.47;5027303;28;20057;-67
2021/09/03 05:52:44;;;;;;;10.38;6.63;;;;;;;19.01;62.48;101015.34;5029942;28;20025;-66
2021/09/03 05:55:09;;;;;;;10.13;6.93;;;;;;;18.98;61.84;101007.53;5028656;28;20029;-66
2021/09/03 05:57:35;;;;;;;11.05;6.82;;;;;;;19.12;61.52;101015.00;5030085;28;20022;-67
2021/09/03 06:00:00;;;;;;;11.65;6.75;;;;;;;19.16;60.95;101004.63;5045146;28;20038;-67
2021/09/03 06:02:27;;;;;;;9.27;5.93;;;;;;;19.27;60.74;101015.16;5028104;28;20104;-67
2021/09/03 06:04:53;;;;;;;9.45;6.00;;;;;;;19.29;60.48;101014.00;5010097;28;20053;-67
2021/09/03 06:07:18;;;;;;;7.20;5.22;;;;;;;19.39;59.66;101014.66;5009980;28;20034;-66
2021/09/03 06:09:44;;;;;;;7.97;5.68;;;;;;;19.47;59.02;101005.59;5010304;28;20018;-66
2021/09/03 06:12:10;;;;;;;11.18;5.60;;;;;;;19.54;58.42;101012.88;5010220;28;20482;-67
2021/09/03 06:14:35;;;;;;;8.35;5.65;;;;;;;19.62;58.48;101010.13;5010207;28;20045;-67
2021/09/03 06:17:01;;;;;;;9.60;5.25;;;;;;;19.71;57.60;101009.09;5010404;28;20017;-67
2021/09/03 06:19:27;;;;;;;8.15;4.90;;;;;;;19.80;56.64;101004.44;5010223;28;20375;-67
2021/09/03 06:21:53;;;;;;;6.78;5.13;;;;;;;19.89;56.63;101001.50;5009099;28;20379;-67
2021/09/03 06:24:30;;;;;;;9.70;4.57;;;;;;;19.95;56.32;100991.75;5010089;28;20042;-66
2021/09/03 06:27:01;;;;;;;5.60;4.45;;;;;;;20.04;55.27;100990.69;5010137;28;20030;-67
2021/09/03 06:29:42;;;;;;;7.90;4.18;;;;;;;20.16;54.81;101000.19;5010133;28;20073;-67
2021/09/03 06:32:14;;;;;;;8.88;4.75;;;;;;;20.27;53.70;101005.22;5007650;28;20030;-67
2021/09/03 06:34:43;;;;;;;5.78;3.95;;;;;;;20.36;53.57;101012.31;5011583;28;20053;-66
2021/09/03 06:37:09;;;;;;;8.52;3.90;;;;;;;20.43;52.93;100996.94;5013465;28;20076;-66
2021/09/03 06:39:35;;;;;;;7.28;3.78;;;;;;;20.55;52.42;101002.81;5013590;28;20509;-66
2021/09/03 06:42:02;;;;;;;8.30;3.92;;;;;;;20.62;51.74;101003.78;5013539;28;20033;-67
2021/09/03 06:44:28;;;;;;;5.40;3.67;;;;;;;20.66;51.86;101018.75;5013758;28;20133;-66
2021/09/03 06:46:53;;;;;;;8.68;3.67;;;;;;;20.70;51.73;101015.47;5013441;28;20034;-67
2021/09/03 06:49:19;;;;;;;5.68;3.95;;;;;;;20.72;51.78;101016.13;5012063;28;20040;-66
2021/09/03 06:51:44;;;;;;;4.28;3.13;;;;;;;20.76;52.01;101014.72;5013522;28;20061;-67
2021/09/03 06:54:10;;;;;;;6.30;3.50;;;;;;;20.82;51.88;101016.72;5013232;28;20529;-67
2021/09/03 06:56:35;;;;;;;8.45;4.00;;;;;;;20.88;51.70;101015.13;5013349;28;20022;-67
2021/09/03 06:59:02;;;;;;;6.30;3.45;;;;;;;20.84;51.48;101008.38;5013288;28;20038;-67
2021/09/03 07:01:27;;;;;;;5.25;3.65;;;;;;;20.97;50.92;101016.81;5028125;28;20033;-67
2021/09/03 07:03:53;;;;;;;5.72;3.50;;;;;;;20.98;49.82;101008.44;5011790;28;20415;-66
2021/09/03 07:06:18;;;;;;;4.88;3.40;;;;;;;21.04;49.74;101017.75;5012993;28;20018;-66
2021/09/03 07:08:44;;;;;;;10.15;3.22;;;;;;;21.04;48.34;101012.28;5013108;28;20482;-66
2021/09/03 07:11:09;;;;;;;6.28;3.30;;;;;;;21.02;48.61;100995.28;5012937;28;20017;-66
2021/09/03 07:13:35;;;;;;;4.82;3.28;;;;;;;21.06;48.14;101005.66;5012949;28;20085;-66
2021/09/03 07:16:01;;;;;;;5.57;3.50;;;;;;;21.07;48.30;100998.28;5013098;28;20044;-66
2021/09/03 07:18:27;;;;;;;5.70;3.38;;;;;;;21.04;48.38;100996.78;5012828;28;20028;-65
2021/09/03 07:20:52;;;;;;;4.32;2.95;;;;;;;21.14;48.64;101012.88;5012790;28;20026;-65
2021/09/03 07:23:18;;;;;;;4.68;2.83;;;;;;;21.17;49.16;101009.78;5012761;28;20041;-65
2021/09/03 07:25:44;;;;;;;4.32;2.95;;;;;;;21.18;48.84;101006.03;5012697;28;20276;-65
2021/09/03 07:28:09;;;;;;;7.63;3.88;;;;;;;21.20;49.01;101003.94;5012812;28;20134;-67
2021/09/03 07:30:35;;;;;;;6.45;3.33;;;;;;;21.26;49.10;101014.13;5012562;28;20095;-66
2021/09/03 07:33:00;;;;;;;6.55;3.75;;;;;;;21.29;49.21;101008.28;5012781;28;20030;-67
2021/09/03 07:35:26;;;;;;;5.82;3.58;;;;;;;21.39;48.67;101003.41;5012598;28;20439;-67
2021/09/03 07:37:51;;;;;;;4.57;3.28;;;;;;;21.48;48.64;101011.31;5013038;28;20499;-66
2021/09/03 07:40:17;;;;;;;5.82;3.20;;;;;;;21.59;48.82;101008.13;5012434;28;20017;-67
2021/09/03 07:42:44;;;;;;;7.47;3.20;;;;;;;21.73;48.44;100996.38;5012382;28;20695;-66
2021/09/03 07:45:09;;;;;;;6.00;3.60;;;;;;;22.02;47.03;101006.38;5011954;28;20136;-67
2021/09/03 07:47:35;;;;;;;5.10;3.35;;;;;;;22.21;47.10;101000.31;5012304;28;20117;-66
2021/09/03 07:50:01;;;;;;;6.88;2.95;;;;;;;22.36;46.59;100998.38;5012319;28;20024;-65
2021/09/03 07:52:26;;;;;;;4.28;3.03;;;;;;;22.66;46.33;101007.34;5012353;28;20406;-65
2021/09/03 07:54:52;;;;;;;6.25;3.33;;;;;;;22.88;45.46;101003.53;5012301;28;20491;-66
2021/09/03 07:57:17;;;;;;;4.00;3.20;;;;;;;23.10;44.68;100997.84;5012078;28;20121;-66
2021/09/03 07:59:42;;;;;;;6.40;3.50;;;;;;;23.39;44.34;101007.75;5011751;28;20045;-67
2021/09/03 08:02:10;;;;;;;5.70;3.10;;;;;;;23.55;43.94;101008.28;5012125;28;20026;-66
2021/09/03 08:04:36;;;;;;;4.05;3.22;;;;;;;23.70;43.74;101005.44;5011841;28;20124;-66
2021/09/03 08:07:02;;;;;;;6.28;3.10;;;;;;;23.88;43.31;101003.81;5012078;28;20080;-65
2021/09/03 08:09:27;;;;;;;4.38;3.47;;;;;;;24.21;43.13;100998.47;5027052;28;20032;-66
2021/09/03 08:11:53;;;;;;;4.32;2.95;;;;;;;24.52;41.65;100984.22;5011967;28;20036;-66
2021/09/03 08:14:18;;;;;;;4.95;3.10;;;;;;;24.77;40.96;100969.72;5011730;28;20047;-66
2021/09/03 08:16:44;;;;;;;7.38;2.92;;;;;;;24.99;40.60;100978.59;5011512;28;20037;-66
2021/09/03 08:19:10;;;;;;;4.95;2.90;;;;;;;25.11;39.81;100983.22;5011735;28;20033;-66
2021/09/03 08:21:36;;;;;;;4.90;3.30;;;;;;;25.18;39.74;100986.78;5011690;28;20108;-66
2021/09/03 08:24:02;;;;;;;5.78;3.00;;;;;;;25.33;39.60;100976.47;5011842;28;20041;-66
2021/09/03 08:26:28;;;;;;;3.63;2.47;;;;;;;25.94;38.63;100977.75;5010382;28;20048;-66
2021/09/03 08:28:53;;;;;;;4.10;2.58;;;;;;;26.54;37.01;100976.38;5011533;28;20021;-66
2021/09/03 08:31:19;;;;;;;4.60;2.85;;;;;;;26.79;36.13;100980.00;5011320;28;20383;-66
2021/09/03 08:33:45;;;;;;;4.70;2.90;;;;;;;26.82;36.31;100974.06;5011433;28;20079;-67
2021/09/03 08:36:10;;;;;;;3.80;2.85;;;;;;;26.75;36.31;100972.41;5011395;28;20026;-66
2021/09/03 08:38:36;;;;;;;3.95;2.25;;;;;;;26.61;36.44;100981.81;5010115;28;20037;-65
2021/09/03 08:41:02;;;;;;;3.85;3.05;;;;;;;26.47;36.50;100978.31;5011528;28;20064;-65
2021/09/03 08:43:29;;;;;;;4.60;2.90;;;;;;;26.29;36.50;100978.22;5009869;28;20030;-65
2021/09/03 08:45:54;;;;;;;2.75;2.50;;;;;;;26.09;36.25;100980.25;5011353;28;20038;-65
2021/09/03 08:48:21;;;;;;;3.03;2.67;;;;;;;25.93;36.63;100984.28;5011236;28;20030;-65
2021/09/03 08:50:49;;;;;;;3.70;2.50;;;;;;;25.78;36.71;100978.22;5011104;28;20048;-65
2021/09/03 08:53:19;;;;;;;5.15;2.78;;;;;;;25.65;36.50;100977.44;5011216;28;20036;-65
2021/09/03 08:55:47;;;;;;;3.20;2.50;;;;;;;25.47;37.55;100969.03;5011238;28;20034;-65
2021/09/03 08:58:13;;;;;;;5.63;2.45;;;;;;;25.35;37.85;100968.84;5010477;28;20767;-65
2021/09/03 09:00:38;;;;;;;3.10;2.65;;;;;;;25.31;37.56;100980.50;5011014;28;20026;-65
2021/09/03 09:03:07;;;;;;;3.22;2.60;;;;;;;25.12;37.88;100967.59;5011181;28;20030;-65
2021/09/03 09:05:56;;;;;;;5.28;2.78;;;;;;;25.03;38.34;100966.13;5010964;28;20072;-65
2021/09/03 09:08:27;;;;;;;2.58;2.33;;;;;;;24.90;38.53;100971.63;5009550;28;20025;-65
2021/09/03 09:10:57;;;;;;;3.42;2.60;;;;;;;24.76;38.51;100970.75;5008476;28;20025;-65
2021/09/03 09:13:26;;;;;;;4.93;2.78;;;;;;;24.62;38.87;100959.94;5011029;28;20096;-66
2021/09/03 09:16:08;;;;;;;4.75;2.88;;;;;;;24.53;39.82;100975.78;5010851;28;20073;-66
2021/09/03 09:18:38;;;;;;;3.67;2.70;;;;;;;24.47;39.96;100973.88;5010788;28;20026;-66
2021/09/03 09:21:18;;;;;;;3.15;2.72;;;;;;;24.42;40.26;100963.53;5010800;28;20026;-66
2021/09/03 09:23:50;;;;;;;3.33;2.92;;;;;;;24.45;40.35;100968.59;5010768;28;20080;-66
2021/09/03 09:26:18;;;;;;;2.90;2.55;;;;;;;24.51;40.52;100969.69;5010847;28;20025;-66
2021/09/03 09:28:44;;;;;;;3.22;2.83;;;;;;;24.61;40.07;100958.28;5010628;28;20055;-67
2021/09/03 09:31:11;;;;;;;4.13;2.65;;;;;;;24.68;40.06;100956.41;5010515;28;20041;-67
2021/09/03 09:33:44;;;;;;;3.03;2.33;;;;;;;24.73;39.71;100941.00;5013879;28;20036;-66
2021/09/03 09:36:09;;;;;;;3.42;2.75;;;;;;;24.97;39.04;100945.00;5030263;28;20391;-66
2021/09/03 09:38:36;;;;;;;5.95;3.00;;;;;;;25.13;38.68;100950.91;5030208;28;20044;-67
2021/09/03 09:41:04;;;;;;;4.85;2.40;;;;;;;25.24;38.23;100946.66;5030376;28;20029;-66
2021/09/03 09:43:43;;;;;;;3.45;2.63;;;;;;;25.37;37.53;100942.00;5030353;28;20026;-66
2021/09/03 09:46:12;;;;;;;2.60;2.40;;;;;;;25.53;36.82;100938.78;5030185;28;20048;-66
2021/09/03 09:48:50;;;;;;;3.15;2.10;;;;;;;25.70;36.46;100936.41;5030225;28;20025;-66
2021/09/03 09:51:34;;;;;;;3.08;2.20;;;;;;;25.88;34.93;100928.28;5030054;28;20026;-66
2021/09/03 09:54:14;;;;;;;3.33;2.05;;;;;;;25.93;35.17;100933.97;5030274;28;20427;-67
2021/09/03 09:56:47;;;;;;;3.40;2.10;;;;;;;25.85;35.60;100918.56;5045512;28;20060;-67
2021/09/03 09:59:14;;;;;;;2.72;2.40;;;;;;;25.96;35.57;100930.78;5028674;28;20038;-67
2021/09/03 10:01:41;;;;;;;4.95;2.53;;;;;;;25.95;35.67;100920.81;5029947;28;20045;-66
2021/09/03 10:04:15;;;;;;;4.15;2.10;;;;;;;26.04;35.40;100916.81;5021060;28;20041;-67
2021/09/03 10:06:42;;;;;;;4.47;2.20;;;;;;;26.11;34.80;100923.94;5007845;28;20116;-67
2021/09/03 10:09:11;;;;;;;2.75;2.13;;;;;;;26.12;34.11;100917.38;5011164;28;20153;-67
2021/09/03 10:11:39;;;;;;;2.90;2.20;;;;;;;26.13;34.46;100919.09;5014054;28;20116;-67
2021/09/03 10:14:06;;;;;;;2.95;2.25;;;;;;;26.19;34.20;100909.09;5014294;28;20491;-67
2021/09/03 10:16:32;;;;;;;3.00;2.05;;;;;;;26.23;34.04;100910.34;5013944;28;20110;-66
2021/09/03 10:19:01;;;;;;;2.53;2.30;;;;;;;26.25;33.59;100903.53;5014120;28;20034;-66
2021/09/03 10:21:29;;;;;;;2.47;2.17;;;;;;;26.27;33.41;100897.81;5028496;28;20037;-67
2021/09/03 10:23:56;;;;;;;2.45;2.03;;;;;;;26.28;33.07;100899.53;5033721;28;20470;-67
2021/09/03 10:26:28;;;;;;;6.47;2.05;;;;;;;26.29;32.92;100898.44;5033650;28;20030;-66
2021/09/03 10:29:16;;;;;;;2.22;1.80;;;;;;;26.25;32.97;100888.97;5033513;28;20025;-66
2021/09/03 10:32:06;;;;;;;4.63;2.15;;;;;;;26.28;32.78;100902.28;5033103;28;20041;-67
2021/09/03 10:34:41;;;;;;;2.50;2.25;;;;;;;26.28;33.38;100896.78;5033682;28;20025;-67
2021/09/03 10:37:12;;;;;;;2.85;2.53;;;;;;;26.28;33.86;100889.34;5033445;28;20053;-67
2021/09/03 10:39:49;;;;;;;3.17;2.40;;;;;;;26.21;33.90;100885.81;5033198;28;20040;-67
2021/09/03 10:45:10;;;;;;;3.38;2.25;;;;;;;26.25;33.97;100883.47;5026244;28;20074;-67
2021/09/03 10:47:42;;;;;;;2.83;2.42;;;;;;;26.23;34.10;100882.84;5013583;28;20096;-66
2021/09/03 10:50:11;;;;;;;4.07;2.85;;;;;;;26.26;34.47;100885.13;5012225;28;20029;-67
2021/09/03 10:52:36;;;;;;;3.67;2.60;;;;;;;26.28;34.39;100881.09;5013287;28;20080;-67
2021/09/03 10:55:02;;;;;;;4.38;2.55;;;;;;;26.27;34.59;100867.56;5013458;28;20459;-67
2021/09/03 10:57:28;;;;;;;3.53;2.58;;;;;;;26.29;34.61;100882.81;5013293;28;20030;-67
2021/09/03 11:00:22;;;;;;;3.20;2.58;;;;;;;26.24;34.33;100877.09;5013195;28;20081;-66
2021/09/03 11:02:48;;;;;;;3.00;2.30;;;;;;;26.23;34.30;100872.69;5004959;28;20046;-67
2021/09/03 11:05:13;;;;;;;3.38;2.58;;;;;;;26.22;34.57;100870.97;5011493;28;20049;-66
2021/09/03 11:07:46;;;;;;;3.75;2.42;;;;;;;26.20;34.98;100878.63;5013137;28;20025;-67
2021/09/03 11:10:20;;;;;;;3.55;2.55;;;;;;;26.09;34.96;100860.06;5011776;28;20555;-66
2021/09/03 11:12:50;;;;;;;3.28;2.40;;;;;;;26.20;35.06;100872.28;5021354;28;20394;-67
2021/09/03 11:15:16;;;;;;;3.90;2.45;;;;;;;26.20;35.00;100872.28;5032598;28;20029;-67
2021/09/03 11:17:41;;;;;;;6.50;2.78;;;;;;;26.13;34.73;100850.34;5032406;28;20032;-67
2021/09/03 11:20:07;;;;;;;2.53;1.92;;;;;;;26.20;35.01;100855.78;5032070;28;20053;-67
2021/09/03 11:22:36;;;;;;;2.97;2.58;;;;;;;26.13;34.79;100844.84;5032277;28;20509;-67
2021/09/03 11:25:06;;;;;;;4.47;2.25;;;;;;;26.12;35.14;100840.38;5032599;28;20095;-67